sensor_id;sensor_type;location;lat;lon;timestamp;temperature;humidity
53645;DHT22;39547;45.554;12.068;2023-04-06T00:05:08;7.10;57.90
53645;DHT22;39547;45.554;12.068;2023-04-06T00:11:10;7.10;58.10
53645;DHT22;39547;45.554;12.068;2023-04-06T00:17:11;7.10;58.00
53645;DHT22;39547;45.554;12.068;2023-04-06T00:23:13;7.10;57.20
53645;DHT22;39547;45.554;12.068;2023-04-06T00:29:15;7.00;57.40
53645;DHT22;39547;45.554;12.068;2023-04-06T00:35:16;7.00;57.70
53645;DHT22;39547;45.554;12.068;2023-04-06T00:41:18;6.90;57.50
53645;DHT22;39547;45.554;12.068;2023-04-06T00:47:20;6.90;57.70
53645;DHT22;39547;45.554;12.068;2023-04-06T00:53:22;6.80;57.70
53645;DHT22;39547;45.554;12.068;2023-04-06T00:59:28;6.70;58.00
53645;DHT22;39547;45.554;12.068;2023-04-06T01:05:34;6.70;58.00
53645;DHT22;39547;45.554;12.068;2023-04-06T01:11:36;6.50;58.20
53645;DHT22;39547;45.554;12.068;2023-04-06T01:17:40;6.40;58.40
53645;DHT22;39547;45.554;12.068;2023-04-06T01:23:47;6.30;58.40
53645;DHT22;39547;45.554;12.068;2023-04-06T01:29:55;6.20;58.50
53645;DHT22;39547;45.554;12.068;2023-04-06T01:36:10;6.20;58.40
53645;DHT22;39547;45.554;12.068;2023-04-06T01:42:12;6.10;58.80
53645;DHT22;39547;45.554;12.068;2023-04-06T01:48:16;6.00;58.80
53645;DHT22;39547;45.554;12.068;2023-04-06T01:54:18;5.90;59.00
53645;DHT22;39547;45.554;12.068;2023-04-06T02:00:33;5.80;59.30
53645;DHT22;39547;45.554;12.068;2023-04-06T02:06:35;5.90;59.40
53645;DHT22;39547;45.554;12.068;2023-04-06T02:12:39;5.70;59.60
53645;DHT22;39547;45.554;12.068;2023-04-06T02:18:44;5.70;59.70
53645;DHT22;39547;45.554;12.068;2023-04-06T02:24:46;5.70;59.70
53645;DHT22;39547;45.554;12.068;2023-04-06T02:30:48;5.60;60.00
53645;DHT22;39547;45.554;12.068;2023-04-06T02:36:50;5.60;60.10
53645;DHT22;39547;45.554;12.068;2023-04-06T02:42:51;5.50;59.30
53645;DHT22;39547;45.554;12.068;2023-04-06T02:49:01;5.40;59.50
53645;DHT22;39547;45.554;12.068;2023-04-06T02:55:05;5.40;59.80
53645;DHT22;39547;45.554;12.068;2023-04-06T03:01:09;5.20;59.30
53645;DHT22;39547;45.554;12.068;2023-04-06T03:07:12;5.20;59.90
53645;DHT22;39547;45.554;12.068;2023-04-06T03:13:14;5.10;59.80
53645;DHT22;39547;45.554;12.068;2023-04-06T03:19:28;5.10;60.50
53645;DHT22;39547;45.554;12.068;2023-04-06T03:25:33;5.10;60.90
53645;DHT22;39547;45.554;12.068;2023-04-06T03:31:39;5.10;61.10
53645;DHT22;39547;45.554;12.068;2023-04-06T03:37:44;5.10;60.90
53645;DHT22;39547;45.554;12.068;2023-04-06T03:43:46;5.10;60.60
53645;DHT22;39547;45.554;12.068;2023-04-06T03:49:48;5.00;60.40
53645;DHT22;39547;45.554;12.068;2023-04-06T03:55:51;5.00;60.70
53645;DHT22;39547;45.554;12.068;2023-04-06T04:01:52;5.00;61.10
53645;DHT22;39547;45.554;12.068;2023-04-06T04:07:54;5.00;61.50
53645;DHT22;39547;45.554;12.068;2023-04-06T04:14:00;5.10;61.70
53645;DHT22;39547;45.554;12.068;2023-04-06T04:20:02;5.20;61.20
53645;DHT22;39547;45.554;12.068;2023-04-06T04:26:04;5.20;60.90
53645;DHT22;39547;45.554;12.068;2023-04-06T04:32:06;5.20;60.90
53645;DHT22;39547;45.554;12.068;2023-04-06T04:38:08;5.20;60.30
53645;DHT22;39547;45.554;12.068;2023-04-06T04:44:14;5.20;60.00
53645;DHT22;39547;45.554;12.068;2023-04-06T04:50:17;5.10;60.10
53645;DHT22;39547;45.554;12.068;2023-04-06T04:56:21;5.10;60.00
53645;DHT22;39547;45.554;12.068;2023-04-06T05:02:27;5.10;60.50
53645;DHT22;39547;45.554;12.068;2023-04-06T05:08:45;5.10;61.00
53645;DHT22;39547;45.554;12.068;2023-04-06T05:14:47;5.20;61.40
53645;DHT22;39547;45.554;12.068;2023-04-06T05:20:51;5.20;61.40
53645;DHT22;39547;45.554;12.068;2023-04-06T05:26:57;5.30;61.50
53645;DHT22;39547;45.554;12.068;2023-04-06T05:32:59;5.40;61.70
53645;DHT22;39547;45.554;12.068;2023-04-06T05:39:06;5.50;61.80
53645;DHT22;39547;45.554;12.068;2023-04-06T05:45:17;5.60;61.60
53645;DHT22;39547;45.554;12.068;2023-04-06T05:51:25;5.60;62.00
53645;DHT22;39547;45.554;12.068;2023-04-06T05:57:28;5.70;62.30
53645;DHT22;39547;45.554;12.068;2023-04-06T06:03:29;5.80;62.50
53645;DHT22;39547;45.554;12.068;2023-04-06T06:09:32;6.00;62.60
53645;DHT22;39547;45.554;12.068;2023-04-06T06:15:44;6.30;62.50
53645;DHT22;39547;45.554;12.068;2023-04-06T06:21:46;6.50;62.10
53645;DHT22;39547;45.554;12.068;2023-04-06T06:27:47;6.70;61.70
53645;DHT22;39547;45.554;12.068;2023-04-06T06:33:51;6.80;61.60
53645;DHT22;39547;45.554;12.068;2023-04-06T06:39:55;6.90;60.80
53645;DHT22;39547;45.554;12.068;2023-04-06T06:45:57;7.10;61.20
53645;DHT22;39547;45.554;12.068;2023-04-06T06:52:00;7.40;60.80
53645;DHT22;39547;45.554;12.068;2023-04-06T06:58:02;7.60;60.80
53645;DHT22;39547;45.554;12.068;2023-04-06T07:04:04;7.80;60.20
53645;DHT22;39547;45.554;12.068;2023-04-06T07:10:06;8.00;58.80
53645;DHT22;39547;45.554;12.068;2023-04-06T07:16:08;8.20;59.60
53645;DHT22;39547;45.554;12.068;2023-04-06T07:22:09;8.40;58.60
53645;DHT22;39547;45.554;12.068;2023-04-06T07:28:11;8.70;59.20
53645;DHT22;39547;45.554;12.068;2023-04-06T07:34:13;8.80;58.70
53645;DHT22;39547;45.554;12.068;2023-04-06T07:40:15;9.00;58.00
53645;DHT22;39547;45.554;12.068;2023-04-06T07:46:17;9.20;57.50
53645;DHT22;39547;45.554;12.068;2023-04-06T07:52:19;9.30;56.30
53645;DHT22;39547;45.554;12.068;2023-04-06T07:58:20;9.50;56.50
53645;DHT22;39547;45.554;12.068;2023-04-06T08:04:22;9.70;56.10
53645;DHT22;39547;45.554;12.068;2023-04-06T08:10:24;9.80;56.00
53645;DHT22;39547;45.554;12.068;2023-04-06T08:16:26;10.10;53.80
53645;DHT22;39547;45.554;12.068;2023-04-06T08:22:27;10.20;54.60
53645;DHT22;39547;45.554;12.068;2023-04-06T08:28:29;10.50;52.90
53645;DHT22;39547;45.554;12.068;2023-04-06T08:34:32;10.60;53.50
53645;DHT22;39547;45.554;12.068;2023-04-06T08:40:38;10.70;52.50
53645;DHT22;39547;45.554;12.068;2023-04-06T08:46:39;10.90;52.00
53645;DHT22;39547;45.554;12.068;2023-04-06T08:52:46;11.00;49.50
53645;DHT22;39547;45.554;12.068;2023-04-06T08:58:48;11.20;51.10
53645;DHT22;39547;45.554;12.068;2023-04-06T09:04:53;11.40;51.60
53645;DHT22;39547;45.554;12.068;2023-04-06T09:10:54;11.70;48.90
53645;DHT22;39547;45.554;12.068;2023-04-06T09:16:56;11.80;49.80
53645;DHT22;39547;45.554;12.068;2023-04-06T09:22:58;12.00;48.40
53645;DHT22;39547;45.554;12.068;2023-04-06T09:29:00;12.20;47.30
53645;DHT22;39547;45.554;12.068;2023-04-06T09:35:09;12.30;46.10
53645;DHT22;39547;45.554;12.068;2023-04-06T09:41:10;12.20;43.70
53645;DHT22;39547;45.554;12.068;2023-04-06T09:47:12;12.50;44.70
53645;DHT22;39547;45.554;12.068;2023-04-06T09:53:14;12.70;43.10
53645;DHT22;39547;45.554;12.068;2023-04-06T10:05:47;12.80;42.20
53645;DHT22;39547;45.554;12.068;2023-04-06T10:11:52;13.00;40.80
53645;DHT22;39547;45.554;12.068;2023-04-06T10:17:54;13.20;42.40
53645;DHT22;39547;45.554;12.068;2023-04-06T10:23:59;13.30;40.50
53645;DHT22;39547;45.554;12.068;2023-04-06T10:30:06;13.40;42.30
53645;DHT22;39547;45.554;12.068;2023-04-06T10:42:14;13.80;40.70
53645;DHT22;39547;45.554;12.068;2023-04-06T10:48:17;14.00;41.80
53645;DHT22;39547;45.554;12.068;2023-04-06T10:54:20;14.10;39.60
53645;DHT22;39547;45.554;12.068;2023-04-06T11:00:22;14.30;39.80
53645;DHT22;39547;45.554;12.068;2023-04-06T11:06:25;14.40;37.10
53645;DHT22;39547;45.554;12.068;2023-04-06T11:12:28;14.50;39.00
53645;DHT22;39547;45.554;12.068;2023-04-06T11:18:31;14.60;40.40
53645;DHT22;39547;45.554;12.068;2023-04-06T11:24:33;14.70;38.60
53645;DHT22;39547;45.554;12.068;2023-04-06T11:30:34;14.70;37.00
53645;DHT22;39547;45.554;12.068;2023-04-06T11:36:36;14.80;37.40
53645;DHT22;39547;45.554;12.068;2023-04-06T11:42:41;15.00;37.30
53645;DHT22;39547;45.554;12.068;2023-04-06T11:48:46;15.30;37.40
53645;DHT22;39547;45.554;12.068;2023-04-06T11:54:49;15.40;38.20
53645;DHT22;39547;45.554;12.068;2023-04-06T12:00:51;15.60;37.30
53645;DHT22;39547;45.554;12.068;2023-04-06T12:06:54;15.80;38.50
53645;DHT22;39547;45.554;12.068;2023-04-06T12:12:55;15.90;36.70
53645;DHT22;39547;45.554;12.068;2023-04-06T12:18:57;16.50;36.50
53645;DHT22;39547;45.554;12.068;2023-04-06T12:24:59;17.10;36.60
53645;DHT22;39547;45.554;12.068;2023-04-06T12:31:00;17.90;35.60
53645;DHT22;39547;45.554;12.068;2023-04-06T12:37:02;18.70;34.40
53645;DHT22;39547;45.554;12.068;2023-04-06T12:43:04;19.10;34.30
53645;DHT22;39547;45.554;12.068;2023-04-06T12:49:05;19.70;32.30
53645;DHT22;39547;45.554;12.068;2023-04-06T12:55:07;20.10;32.50
53645;DHT22;39547;45.554;12.068;2023-04-06T13:01:09;21.00;32.20
53645;DHT22;39547;45.554;12.068;2023-04-06T13:07:12;21.30;30.90
53645;DHT22;39547;45.554;12.068;2023-04-06T13:13:15;22.20;30.60
53645;DHT22;39547;45.554;12.068;2023-04-06T13:19:16;22.10;29.10
53645;DHT22;39547;45.554;12.068;2023-04-06T13:25:19;22.60;28.90
53645;DHT22;39547;45.554;12.068;2023-04-06T13:31:21;22.50;27.00
53645;DHT22;39547;45.554;12.068;2023-04-06T13:37:22;22.10;27.80
53645;DHT22;39547;45.554;12.068;2023-04-06T13:43:24;22.80;28.00
53645;DHT22;39547;45.554;12.068;2023-04-06T13:49:27;23.40;26.70
53645;DHT22;39547;45.554;12.068;2023-04-06T13:55:29;23.60;26.90
53645;DHT22;39547;45.554;12.068;2023-04-06T14:01:32;24.10;26.70
53645;DHT22;39547;45.554;12.068;2023-04-06T14:07:35;24.20;25.60
53645;DHT22;39547;45.554;12.068;2023-04-06T14:13:36;24.50;25.90
53645;DHT22;39547;45.554;12.068;2023-04-06T14:19:38;24.40;25.00
53645;DHT22;39547;45.554;12.068;2023-04-06T14:25:39;24.30;24.70
53645;DHT22;39547;45.554;12.068;2023-04-06T14:31:41;24.70;24.40
53645;DHT22;39547;45.554;12.068;2023-04-06T14:37:43;24.50;23.70
53645;DHT22;39547;45.554;12.068;2023-04-06T14:43:46;24.70;23.80
53645;DHT22;39547;45.554;12.068;2023-04-06T14:49:49;24.20;24.00
53645;DHT22;39547;45.554;12.068;2023-04-06T14:55:51;24.60;24.00
53645;DHT22;39547;45.554;12.068;2023-04-06T15:01:53;23.40;24.30
53645;DHT22;39547;45.554;12.068;2023-04-06T15:07:54;22.20;26.20
53645;DHT22;39547;45.554;12.068;2023-04-06T15:13:56;20.50;28.40
53645;DHT22;39547;45.554;12.068;2023-04-06T15:19:57;19.10;30.90
53645;DHT22;39547;45.554;12.068;2023-04-06T15:25:59;18.30;33.00
53645;DHT22;39547;45.554;12.068;2023-04-06T15:32:00;17.80;34.30
53645;DHT22;39547;45.554;12.068;2023-04-06T15:38:02;17.50;35.50
53645;DHT22;39547;45.554;12.068;2023-04-06T15:44:04;17.50;35.30
53645;DHT22;39547;45.554;12.068;2023-04-06T15:50:07;17.90;34.80
53645;DHT22;39547;45.554;12.068;2023-04-06T15:56:08;18.10;35.20
53645;DHT22;39547;45.554;12.068;2023-04-06T16:02:11;18.50;35.40
53645;DHT22;39547;45.554;12.068;2023-04-06T16:08:12;18.60;35.10
53645;DHT22;39547;45.554;12.068;2023-04-06T16:14:17;18.30;34.80
53645;DHT22;39547;45.554;12.068;2023-04-06T16:20:18;17.50;35.70
53645;DHT22;39547;45.554;12.068;2023-04-06T16:26:21;16.70;36.80
53645;DHT22;39547;45.554;12.068;2023-04-06T16:32:22;16.10;38.30
53645;DHT22;39547;45.554;12.068;2023-04-06T16:38:24;15.70;39.10
53645;DHT22;39547;45.554;12.068;2023-04-06T16:44:25;15.20;40.10
53645;DHT22;39547;45.554;12.068;2023-04-06T16:50:28;14.80;40.80
53645;DHT22;39547;45.554;12.068;2023-04-06T16:56:30;14.60;41.90
53645;DHT22;39547;45.554;12.068;2023-04-06T17:02:32;14.20;43.00
53645;DHT22;39547;45.554;12.068;2023-04-06T17:08:36;14.00;43.90
53645;DHT22;39547;45.554;12.068;2023-04-06T17:14:37;13.80;44.20
53645;DHT22;39547;45.554;12.068;2023-04-06T17:20:39;13.60;44.90
53645;DHT22;39547;45.554;12.068;2023-04-06T17:26:41;13.40;45.60
53645;DHT22;39547;45.554;12.068;2023-04-06T17:32:42;13.20;46.20
53645;DHT22;39547;45.554;12.068;2023-04-06T17:38:45;13.10;46.80
53645;DHT22;39547;45.554;12.068;2023-04-06T17:44:46;12.90;47.10
53645;DHT22;39547;45.554;12.068;2023-04-06T17:50:49;12.80;47.80
53645;DHT22;39547;45.554;12.068;2023-04-06T17:56:50;12.70;48.40
53645;DHT22;39547;45.554;12.068;2023-04-06T18:02:53;12.60;48.80
53645;DHT22;39547;45.554;12.068;2023-04-06T18:08:55;12.50;49.40
53645;DHT22;39547;45.554;12.068;2023-04-06T18:14:57;12.40;50.30
53645;DHT22;39547;45.554;12.068;2023-04-06T18:21:02;12.20;50.80
53645;DHT22;39547;45.554;12.068;2023-04-06T18:27:04;12.20;51.00
53645;DHT22;39547;45.554;12.068;2023-04-06T18:33:06;12.20;51.50
53645;DHT22;39547;45.554;12.068;2023-04-06T18:39:07;12.10;52.10
53645;DHT22;39547;45.554;12.068;2023-04-06T18:45:09;12.00;52.30
53645;DHT22;39547;45.554;12.068;2023-04-06T18:51:11;11.90;52.60
53645;DHT22;39547;45.554;12.068;2023-04-06T18:57:13;11.80;52.80
53645;DHT22;39547;45.554;12.068;2023-04-06T19:03:14;11.80;53.30
53645;DHT22;39547;45.554;12.068;2023-04-06T19:09:16;11.80;53.50
53645;DHT22;39547;45.554;12.068;2023-04-06T19:15:17;11.80;53.80
53645;DHT22;39547;45.554;12.068;2023-04-06T19:21:21;11.70;54.30
53645;DHT22;39547;45.554;12.068;2023-04-06T19:27:23;11.70;54.60
53645;DHT22;39547;45.554;12.068;2023-04-06T19:33:24;11.60;54.90
53645;DHT22;39547;45.554;12.068;2023-04-06T19:39:26;11.50;55.80
53645;DHT22;39547;45.554;12.068;2023-04-06T19:45:27;11.50;56.50
53645;DHT22;39547;45.554;12.068;2023-04-06T19:51:33;11.30;56.50
53645;DHT22;39547;45.554;12.068;2023-04-06T19:57:34;11.30;56.80
53645;DHT22;39547;45.554;12.068;2023-04-06T20:03:36;11.20;57.20
53645;DHT22;39547;45.554;12.068;2023-04-06T20:09:38;11.20;57.60
53645;DHT22;39547;45.554;12.068;2023-04-06T20:15:39;11.10;57.90
53645;DHT22;39547;45.554;12.068;2023-04-06T20:21:41;11.00;58.10
53645;DHT22;39547;45.554;12.068;2023-04-06T20:27:44;10.90;58.90
53645;DHT22;39547;45.554;12.068;2023-04-06T20:33:45;10.90;59.40
53645;DHT22;39547;45.554;12.068;2023-04-06T20:39:47;10.70;60.90
53645;DHT22;39547;45.554;12.068;2023-04-06T20:45:48;10.60;61.00
53645;DHT22;39547;45.554;12.068;2023-04-06T20:51:50;10.50;60.70
53645;DHT22;39547;45.554;12.068;2023-04-06T20:57:52;10.40;61.20
53645;DHT22;39547;45.554;12.068;2023-04-06T21:03:53;10.20;61.40
53645;DHT22;39547;45.554;12.068;2023-04-06T21:09:55;10.20;62.10
53645;DHT22;39547;45.554;12.068;2023-04-06T21:15:57;10.10;62.90
53645;DHT22;39547;45.554;12.068;2023-04-06T21:21:58;10.00;63.80
53645;DHT22;39547;45.554;12.068;2023-04-06T21:28:00;9.90;63.60
53645;DHT22;39547;45.554;12.068;2023-04-06T21:34:01;9.80;63.80
53645;DHT22;39547;45.554;12.068;2023-04-06T21:40:03;9.80;64.20
53645;DHT22;39547;45.554;12.068;2023-04-06T21:46:06;9.60;64.20
53645;DHT22;39547;45.554;12.068;2023-04-06T21:52:07;9.60;64.20
53645;DHT22;39547;45.554;12.068;2023-04-06T21:58:09;9.50;64.30
53645;DHT22;39547;45.554;12.068;2023-04-06T22:04:11;9.50;64.50
53645;DHT22;39547;45.554;12.068;2023-04-06T22:10:13;9.50;64.50
53645;DHT22;39547;45.554;12.068;2023-04-06T22:16:14;9.50;64.40
53645;DHT22;39547;45.554;12.068;2023-04-06T22:22:18;9.50;64.20
53645;DHT22;39547;45.554;12.068;2023-04-06T22:28:20;9.40;64.40
53645;DHT22;39547;45.554;12.068;2023-04-06T22:34:21;9.40;64.70
53645;DHT22;39547;45.554;12.068;2023-04-06T22:40:23;9.30;64.80
53645;DHT22;39547;45.554;12.068;2023-04-06T22:46:25;9.20;64.90
53645;DHT22;39547;45.554;12.068;2023-04-06T22:52:26;9.20;65.40
53645;DHT22;39547;45.554;12.068;2023-04-06T22:58:28;9.20;65.40
53645;DHT22;39547;45.554;12.068;2023-04-06T23:04:29;9.10;65.50
53645;DHT22;39547;45.554;12.068;2023-04-06T23:10:31;9.10;65.90
53645;DHT22;39547;45.554;12.068;2023-04-06T23:16:33;9.00;65.90
53645;DHT22;39547;45.554;12.068;2023-04-06T23:22:34;9.00;65.90
53645;DHT22;39547;45.554;12.068;2023-04-06T23:28:36;8.90;66.00
53645;DHT22;39547;45.554;12.068;2023-04-06T23:34:37;8.80;66.20
53645;DHT22;39547;45.554;12.068;2023-04-06T23:40:39;8.80;66.50
53645;DHT22;39547;45.554;12.068;2023-04-06T23:46:40;8.80;66.50
53645;DHT22;39547;45.554;12.068;2023-04-06T23:52:42;8.80;66.60
53645;DHT22;39547;45.554;12.068;2023-04-06T23:58:43;8.70;66.90
